createdAt,value
2022-08-22T00:00:14.235Z,4.35
2022-08-22T00:02:49.790Z,4.40
2022-08-22T00:03:02.258Z,3.38
2022-08-22T00:03:18.393Z,4.15
2022-08-22T00:06:07.752Z,4.40
2022-08-22T00:08:55.571Z,4.15
2022-08-22T00:11:37.134Z,4.03
2022-08-22T00:14:17.385Z,3.78
2022-08-22T00:16:59.118Z,3.70
2022-08-22T00:19:41.938Z,3.50
2022-08-22T00:22:21.550Z,4.18
2022-08-22T00:24:57.620Z,3.70
2022-08-22T00:27:33.898Z,3.80
2022-08-22T00:30:11.654Z,3.42
2022-08-22T00:32:48.049Z,3.63
2022-08-22T00:35:26.299Z,3.90
2022-08-22T00:38:04.436Z,3.67
2022-08-22T00:40:54.303Z,3.60
2022-08-22T00:43:55.256Z,3.70
2022-08-22T00:47:51.164Z,3.47
2022-08-22T00:51:01.603Z,3.63
2022-08-22T00:53:47.308Z,3.58
2022-08-22T00:57:01.541Z,3.80
2022-08-22T01:00:06.867Z,3.70
2022-08-22T01:02:54.470Z,3.63
2022-08-22T01:05:38.163Z,3.45
2022-08-22T01:08:25.223Z,4.00
2022-08-22T01:11:25.292Z,4.05
2022-08-22T01:14:09.490Z,3.67
2022-08-22T01:17:01.071Z,3.75
2022-08-22T01:20:48.683Z,3.90
2022-08-22T01:23:59.324Z,3.40
2022-08-22T01:27:17.982Z,4.05
2022-08-22T01:30:20.797Z,3.60
2022-08-22T01:33:32.114Z,3.42
2022-08-22T01:36:23.839Z,3.90
2022-08-22T01:39:37.466Z,3.97
2022-08-22T01:42:46.303Z,3.63
2022-08-22T01:45:59.081Z,3.70
2022-08-22T01:48:39.334Z,3.58
2022-08-22T01:51:22.979Z,3.90
2022-08-22T01:54:01.426Z,3.60
2022-08-22T01:56:37.162Z,3.20
2022-08-22T01:59:11.183Z,3.63
2022-08-22T02:01:55.282Z,3.63
2022-08-22T02:04:46.501Z,4.18
2022-08-22T02:07:29.155Z,4.20
2022-08-22T02:10:16.612Z,3.95
2022-08-22T02:12:53.843Z,4.50
2022-08-22T02:15:31.731Z,3.97
2022-08-22T02:18:18.508Z,4.13
2022-08-22T02:21:06.618Z,3.78
2022-08-22T02:23:50.474Z,4.13
2022-08-22T02:26:26.568Z,3.72
2022-08-22T02:29:01.122Z,3.75
2022-08-22T02:31:43.497Z,3.97
2022-08-22T02:34:34.889Z,3.65
2022-08-22T02:37:13.171Z,3.88
2022-08-22T02:39:51.866Z,3.70
2022-08-22T02:42:28.922Z,3.80
2022-08-22T02:45:13.414Z,3.53
2022-08-22T02:47:50.136Z,3.95
2022-08-22T02:50:27.291Z,4.03
2022-08-22T02:53:04.522Z,3.75
2022-08-22T02:55:48.416Z,4.20
2022-08-22T02:58:29.100Z,4.50
2022-08-22T03:01:27.211Z,3.55
2022-08-22T03:04:27.848Z,4.10
2022-08-22T03:07:12.071Z,3.90
2022-08-22T03:09:49.625Z,4.00
2022-08-22T03:12:27.895Z,4.50
2022-08-22T03:15:06.805Z,3.80
2022-08-22T03:17:41.733Z,3.80
2022-08-22T03:20:15.657Z,3.90
2022-08-22T03:22:51.618Z,3.85
2022-08-22T03:25:30.892Z,3.97
2022-08-22T03:28:05.879Z,4.03
2022-08-22T03:30:41.328Z,3.90
2022-08-22T03:33:20.545Z,3.83
2022-08-22T03:36:05.004Z,4.07
2022-08-22T03:38:55.284Z,4.22
2022-08-22T03:41:49.295Z,4.15
2022-08-22T03:45:01.409Z,3.90
2022-08-22T03:48:06.702Z,4.63
2022-08-22T03:51:01.678Z,4.15
2022-08-22T03:54:23.280Z,4.32
2022-08-22T03:58:00.029Z,3.75
2022-08-22T04:01:25.902Z,3.95
2022-08-22T04:04:52.921Z,4.07
2022-08-22T04:08:00.583Z,3.55
2022-08-22T04:10:52.693Z,3.50
2022-08-22T04:14:04.504Z,3.47
2022-08-22T04:17:01.076Z,3.22
2022-08-22T04:20:02.876Z,4.05
2022-08-22T04:23:16.024Z,3.60
2022-08-22T04:25:48.589Z,3.42
2022-08-22T04:28:23.631Z,3.47
2022-08-22T04:31:00.023Z,3.70
2022-08-22T04:33:38.041Z,3.53
2022-08-22T04:36:14.332Z,4.00
2022-08-22T04:38:49.167Z,4.18
2022-08-22T04:41:26.041Z,3.78
2022-08-22T04:43:59.863Z,3.90
2022-08-22T04:46:37.044Z,3.67
2022-08-22T04:49:17.787Z,3.78
2022-08-22T04:51:49.721Z,3.72
2022-08-22T04:54:34.057Z,3.92
2022-08-22T04:57:21.954Z,4.18
2022-08-22T04:59:51.341Z,4.10
2022-08-22T05:02:27.570Z,3.90
2022-08-22T05:05:10.461Z,3.90
2022-08-22T05:07:47.447Z,4.25
2022-08-22T05:10:22.779Z,4.03
2022-08-22T05:13:00.938Z,4.22
2022-08-22T05:15:36.277Z,3.85
2022-08-22T05:18:09.438Z,4.43
2022-08-22T05:20:41.241Z,4.40
2022-08-22T05:23:21.499Z,4.20
2022-08-22T05:25:55.719Z,4.35
2022-08-22T05:28:34.752Z,4.88
2022-08-22T05:31:08.025Z,4.60
2022-08-22T05:33:41.979Z,6.03
2022-08-22T05:36:17.680Z,4.80
2022-08-22T05:38:51.639Z,4.40
2022-08-22T05:41:23.738Z,4.55
2022-08-22T05:43:53.647Z,5.38
2022-08-22T05:46:27.184Z,5.60
2022-08-22T05:49:00.107Z,5.22
2022-08-22T05:51:41.346Z,5.13
2022-08-22T05:54:16.166Z,4.60
2022-08-22T05:56:58.747Z,4.75
2022-08-22T05:59:31.609Z,4.55
2022-08-22T06:02:07.047Z,4.20
2022-08-22T06:04:46.327Z,4.70
2022-08-22T06:07:23.897Z,4.18
2022-08-22T06:10:15.382Z,4.32
2022-08-22T06:12:55.699Z,3.97
2022-08-22T06:15:33.317Z,4.25
2022-08-22T06:18:07.321Z,4.47
2022-08-22T06:20:43.181Z,4.53
2022-08-22T06:23:21.684Z,4.15
2022-08-22T06:25:51.080Z,5.65
2022-08-22T06:28:23.137Z,5.00
2022-08-22T06:30:54.044Z,5.13
2022-08-22T06:33:26.876Z,4.95
2022-08-22T06:36:20.665Z,4.57
2022-08-22T06:39:08.946Z,5.00
2022-08-22T06:41:43.995Z,4.97
2022-08-22T06:44:18.756Z,5.35
2022-08-22T06:46:49.407Z,4.78
2022-08-22T06:49:18.616Z,4.70
2022-08-22T06:51:49.076Z,4.43
2022-08-22T06:54:22.752Z,4.45
2022-08-22T06:56:53.506Z,4.32
2022-08-22T06:59:26.965Z,4.03
2022-08-22T07:02:03.364Z,4.28
2022-08-22T07:04:32.637Z,4.53
2022-08-22T07:07:03.367Z,4.45
2022-08-22T07:09:37.402Z,4.13
2022-08-22T07:12:12.758Z,4.35
2022-08-22T07:14:43.896Z,4.00
2022-08-22T07:17:19.405Z,4.18
2022-08-22T07:19:58.125Z,4.38
2022-08-22T07:22:31.320Z,3.90
2022-08-22T07:25:09.065Z,4.10
2022-08-22T07:27:56.788Z,4.15
2022-08-22T07:30:28.562Z,3.88
2022-08-22T07:33:26.533Z,4.07
2022-08-22T07:36:00.069Z,3.47
2022-08-22T07:38:42.705Z,3.45
2022-08-22T07:41:17.359Z,3.72
2022-08-22T07:43:51.536Z,3.58
2022-08-22T07:46:29.694Z,3.53
2022-08-22T07:49:09.754Z,3.60
2022-08-22T07:51:45.901Z,3.35
2022-08-22T07:54:20.248Z,3.50
2022-08-22T07:56:59.746Z,3.70
2022-08-22T07:59:29.407Z,4.03
2022-08-22T08:02:01.626Z,3.85
2022-08-22T08:04:36.865Z,3.72
2022-08-22T08:07:10.572Z,3.67
2022-08-22T08:09:42.972Z,3.65
2022-08-22T08:12:15.243Z,3.65
2022-08-22T08:14:46.535Z,3.70
2022-08-22T08:17:23.130Z,3.53
2022-08-22T08:19:54.496Z,3.35
2022-08-22T08:22:27.289Z,3.42
2022-08-22T08:24:59.607Z,3.58
2022-08-22T08:27:51.325Z,3.55
2022-08-22T08:30:24.179Z,3.10
2022-08-22T08:32:59.603Z,3.55
2022-08-22T08:36:03.323Z,3.47
2022-08-22T08:38:38.775Z,3.78
2022-08-22T08:41:44.021Z,3.72
2022-08-22T08:44:32.061Z,3.63
2022-08-22T08:47:25.509Z,3.63
2022-08-22T08:50:13.701Z,3.25
2022-08-22T08:53:50.971Z,3.20
2022-08-22T08:56:29.923Z,3.33
2022-08-22T08:59:11.018Z,3.55
2022-08-22T09:02:27.697Z,3.30
2022-08-22T09:06:03.709Z,3.25
2022-08-22T09:09:12.784Z,3.10
2022-08-22T09:12:15.799Z,3.00
2022-08-22T09:18:42.369Z,3.22
2022-08-22T09:21:38.174Z,3.20
2022-08-22T09:24:43.943Z,3.03
2022-08-22T09:27:18.941Z,3.40
2022-08-22T09:29:59.757Z,3.05
2022-08-22T09:32:55.780Z,3.15
2022-08-22T09:35:38.614Z,3.03
2022-08-22T09:38:30.956Z,2.78
2022-08-22T09:40:15.455Z,3.20
2022-08-22T09:41:14.608Z,3.42
2022-08-22T09:43:50.239Z,2.90
2022-08-22T09:46:22.720Z,3.30
2022-08-22T09:49:07.018Z,3.35
2022-08-22T09:51:43.139Z,2.75
2022-08-22T09:54:32.961Z,2.97
2022-08-22T09:57:18.944Z,2.78
2022-08-22T10:00:22.131Z,2.85
2022-08-22T10:03:11.144Z,2.85
2022-08-22T10:05:47.386Z,3.10
2022-08-22T10:08:40.459Z,2.75
2022-08-22T10:11:28.883Z,2.95
2022-08-22T10:14:03.352Z,3.08
2022-08-22T10:16:59.794Z,2.53
2022-08-22T10:19:34.173Z,3.10
2022-08-22T10:22:37.096Z,3.13
2022-08-22T10:25:28.714Z,2.80
2022-08-22T10:28:11.966Z,2.78
2022-08-22T10:30:54.542Z,2.65
2022-08-22T10:33:31.797Z,2.50
2022-08-22T10:36:07.855Z,2.88
2022-08-22T10:38:47.112Z,2.97
2022-08-22T10:41:31.409Z,2.63
2022-08-22T10:44:06.257Z,2.78
2022-08-22T10:46:42.384Z,2.65
2022-08-22T10:49:20.336Z,2.90
2022-08-22T10:52:00.080Z,3.15
2022-08-22T10:54:45.915Z,3.30
2022-08-22T10:57:33.800Z,2.88
2022-08-22T11:00:13.772Z,2.85
2022-08-22T11:02:53.677Z,2.88
2022-08-22T11:05:37.910Z,3.00
2022-08-22T11:08:34.610Z,2.83
2022-08-22T11:11:21.543Z,3.08
2022-08-22T11:14:28.124Z,2.55
2022-08-22T11:17:11.970Z,2.75
2022-08-22T11:20:13.369Z,2.67
2022-08-22T11:22:52.008Z,2.47
2022-08-22T11:25:41.168Z,2.78
2022-08-22T11:28:55.218Z,2.72
2022-08-22T11:31:36.743Z,2.65
2022-08-22T11:34:16.349Z,2.72
2022-08-22T11:36:52.941Z,3.03
2022-08-22T11:39:33.409Z,2.60
2022-08-22T11:42:11.047Z,2.78
2022-08-22T11:44:50.772Z,2.70
2022-08-22T11:47:26.787Z,2.45
2022-08-22T11:50:03.723Z,2.65
2022-08-22T11:53:07.534Z,2.70
2022-08-22T11:55:44.505Z,11.00
2022-08-22T11:58:30.269Z,34.70
2022-08-22T12:01:06.436Z,26.05
2022-08-22T12:04:03.446Z,50.20
2022-08-22T12:06:56.225Z,44.15
2022-08-22T12:09:41.919Z,45.78
2022-08-22T12:12:36.872Z,45.85
2022-08-22T12:15:13.981Z,44.50
2022-08-22T12:18:23.758Z,42.92
2022-08-22T12:21:38.698Z,40.67
2022-08-22T12:24:43.280Z,39.25
2022-08-22T12:27:30.936Z,37.13
2022-08-22T12:30:15.158Z,38.55
2022-08-22T12:33:23.075Z,37.72
2022-08-22T12:36:18.948Z,34.15
2022-08-22T12:39:24.586Z,36.28
2022-08-22T12:42:19.122Z,34.95
2022-08-22T12:45:20.724Z,34.15
2022-08-22T12:48:04.725Z,33.70
2022-08-22T12:50:46.165Z,30.85
2022-08-22T12:54:00.611Z,30.88
2022-08-22T12:56:42.218Z,29.88
2022-08-22T12:59:27.288Z,29.95
2022-08-22T13:01:59.696Z,29.55
2022-08-22T13:04:33.638Z,26.15
2022-08-22T13:07:24.388Z,22.98
2022-08-22T13:10:00.325Z,22.02
2022-08-22T13:12:34.051Z,20.52
2022-08-22T13:15:28.762Z,17.90
2022-08-22T13:18:18.823Z,18.13
2022-08-22T13:20:52.433Z,16.02
2022-08-22T13:23:27.453Z,15.90
2022-08-22T13:26:16.465Z,15.65
2022-08-22T13:29:24.653Z,14.27
2022-08-22T13:32:00.117Z,14.18
2022-08-22T13:34:40.316Z,14.20
2022-08-22T13:37:15.284Z,13.15
2022-08-22T13:39:48.923Z,12.02
2022-08-22T13:42:29.719Z,11.38
2022-08-22T13:45:05.409Z,10.60
2022-08-22T13:47:46.349Z,10.32
2022-08-22T13:50:22.578Z,10.13
2022-08-22T13:53:00.628Z,10.02
2022-08-22T13:55:39.365Z,9.55
2022-08-22T13:58:26.096Z,8.65
2022-08-22T14:01:25.477Z,8.43
2022-08-22T14:04:02.649Z,8.57
2022-08-22T14:06:41.439Z,8.07
2022-08-22T14:09:31.198Z,7.22
2022-08-22T14:12:14.256Z,7.93
2022-08-22T14:14:48.935Z,7.60
2022-08-22T14:17:24.959Z,6.50
2022-08-22T14:20:01.533Z,6.80
2022-08-22T14:22:35.342Z,7.13
2022-08-22T14:25:09.137Z,6.93
2022-08-22T14:27:43.883Z,6.20
2022-08-22T14:30:20.323Z,6.80
2022-08-22T14:32:54.447Z,6.88
2022-08-22T14:35:35.024Z,6.53
2022-08-22T14:38:27.314Z,6.28
2022-08-22T14:41:04.164Z,5.72
2022-08-22T14:43:52.385Z,6.53
2022-08-22T14:46:28.041Z,5.95
2022-08-22T14:49:29.388Z,5.47
2022-08-22T14:52:06.845Z,5.70
2022-08-22T14:54:38.788Z,5.80
2022-08-22T14:57:19.913Z,4.85
2022-08-22T14:59:52.552Z,5.78
2022-08-22T15:02:29.661Z,5.20
2022-08-22T15:05:01.583Z,5.65
2022-08-22T15:07:34.432Z,5.50
2022-08-22T15:10:11.948Z,4.43
2022-08-22T15:12:48.289Z,5.22
2022-08-22T15:15:49.254Z,4.95
2022-08-22T15:18:37.066Z,4.68
2022-08-22T15:21:10.090Z,4.82
2022-08-22T15:23:45.326Z,5.53
2022-08-22T15:26:25.633Z,5.53
2022-08-22T15:29:05.683Z,5.35
2022-08-22T15:31:35.349Z,4.65
2022-08-22T15:34:13.814Z,4.53
2022-08-22T15:37:24.107Z,4.53
2022-08-22T15:40:11.913Z,4.75
2022-08-22T15:42:45.025Z,4.38
2022-08-22T15:45:29.682Z,4.45
2022-08-22T15:48:02.274Z,4.78
2022-08-22T15:50:36.725Z,4.32
2022-08-22T15:53:18.909Z,4.97
2022-08-22T15:56:30.615Z,4.43
2022-08-22T15:59:52.690Z,3.92
2022-08-22T16:02:30.105Z,4.50
2022-08-22T16:05:25.956Z,4.32
2022-08-22T16:08:06.061Z,4.53
2022-08-22T16:10:40.154Z,4.30
2022-08-22T16:13:33.519Z,4.38
2022-08-22T16:16:06.897Z,4.25
2022-08-22T16:19:19.483Z,4.05
2022-08-22T16:22:10.792Z,4.32
2022-08-22T16:25:10.589Z,4.20
2022-08-22T16:27:55.199Z,4.00
2022-08-22T16:30:38.646Z,3.58
2022-08-22T16:33:14.836Z,3.80
2022-08-22T16:36:47.191Z,4.28
2022-08-22T16:39:38.885Z,4.18
2022-08-22T16:42:29.489Z,3.85
2022-08-22T16:45:15.828Z,3.80
2022-08-22T16:47:56.587Z,3.78
2022-08-22T16:50:34.950Z,3.67
2022-08-22T16:53:10.153Z,4.20
2022-08-22T16:56:18.082Z,3.60
2022-08-22T16:59:35.609Z,3.65
2022-08-22T17:02:45.275Z,3.50
2022-08-22T17:05:30.450Z,3.35
2022-08-22T17:08:29.298Z,3.97
2022-08-22T17:11:15.203Z,3.95
2022-08-22T17:14:04.289Z,3.72
2022-08-22T17:16:53.389Z,3.80
2022-08-22T17:19:38.530Z,3.53
2022-08-22T17:22:19.956Z,3.28
2022-08-22T17:25:04.056Z,3.88
2022-08-22T17:27:37.808Z,3.35
2022-08-22T17:30:13.638Z,3.70
2022-08-22T17:33:15.790Z,3.25
2022-08-22T17:36:26.218Z,4.00
2022-08-22T17:39:12.392Z,97.25
2022-08-22T17:41:51.851Z,60.47
2022-08-22T17:44:29.495Z,55.17
2022-08-22T17:47:07.149Z,83.90
2022-08-22T17:49:52.155Z,105.32
2022-08-22T17:52:30.959Z,145.55
2022-08-22T17:55:03.846Z,294.80
2022-08-22T17:57:37.499Z,325.30
2022-08-22T18:00:17.871Z,239.98
2022-08-22T18:02:56.153Z,191.02
2022-08-22T18:05:28.987Z,142.00
2022-08-22T18:08:07.750Z,63.50
2022-08-22T18:10:49.087Z,39.55
2022-08-22T18:13:38.214Z,32.88
2022-08-22T18:16:15.574Z,27.00
2022-08-22T18:18:53.014Z,22.77
2022-08-22T18:21:30.399Z,19.98
2022-08-22T18:24:02.444Z,17.25
2022-08-22T18:26:39.371Z,14.68
2022-08-22T18:29:14.805Z,13.45
2022-08-22T18:31:56.659Z,12.55
2022-08-22T18:34:34.138Z,9.95
2022-08-22T18:37:21.124Z,9.02
2022-08-22T18:39:56.330Z,7.88
2022-08-22T18:42:29.531Z,6.18
2022-08-22T18:44:58.120Z,6.72
2022-08-22T18:47:28.299Z,5.85
2022-08-22T18:49:58.242Z,5.85
2022-08-22T18:52:40.601Z,5.15
2022-08-22T18:55:45.883Z,5.63
2022-08-22T18:59:05.038Z,4.70
2022-08-22T19:01:48.444Z,4.53
2022-08-22T19:05:11.705Z,4.57
2022-08-22T19:08:11.038Z,3.70
2022-08-22T19:11:08.826Z,3.42
2022-08-22T19:14:11.971Z,3.47
2022-08-22T19:17:16.251Z,3.55
2022-08-22T19:20:15.494Z,3.58
2022-08-22T19:22:44.744Z,4.05
2022-08-22T19:25:28.020Z,4.47
2022-08-22T19:28:26.666Z,3.45
2022-08-22T19:31:23.446Z,3.45
2022-08-22T19:34:13.948Z,3.00
2022-08-22T19:36:43.397Z,2.97
2022-08-22T19:39:12.985Z,2.60
2022-08-22T19:41:53.469Z,3.00
2022-08-22T19:44:42.186Z,2.55
2022-08-22T19:47:27.979Z,2.50
2022-08-22T19:50:02.063Z,2.63
2022-08-22T19:52:55.755Z,2.63
2022-08-22T19:55:35.590Z,2.40
2022-08-22T19:58:31.756Z,2.78
2022-08-22T20:01:11.557Z,2.60
2022-08-22T20:03:51.638Z,2.67
2022-08-22T20:06:43.829Z,2.40
2022-08-22T20:09:28.390Z,2.40
2022-08-22T20:12:12.026Z,2.47
2022-08-22T20:14:47.042Z,2.70
2022-08-22T20:17:43.389Z,2.58
2022-08-22T20:20:31.603Z,2.33
2022-08-22T20:23:12.383Z,2.25
2022-08-22T20:25:48.584Z,2.20
2022-08-22T20:28:41.000Z,2.55
2022-08-22T20:31:21.761Z,2.30
2022-08-22T20:33:59.798Z,2.20
2022-08-22T20:36:29.454Z,2.38
2022-08-22T20:39:02.517Z,2.70
2022-08-22T20:41:36.553Z,2.90
2022-08-22T20:44:13.500Z,3.08
2022-08-22T20:46:53.989Z,3.15
2022-08-22T20:49:28.546Z,3.05
2022-08-22T20:51:59.457Z,3.05
2022-08-22T20:54:31.375Z,2.67
2022-08-22T20:57:02.898Z,2.90
2022-08-22T20:59:37.071Z,2.95
2022-08-22T21:02:14.548Z,2.60
2022-08-22T21:04:54.047Z,2.60
2022-08-22T21:07:25.975Z,2.70
2022-08-22T21:10:21.617Z,2.80
2022-08-22T21:13:09.834Z,2.15
2022-08-22T21:15:41.772Z,1.98
2022-08-22T21:18:12.923Z,2.20
2022-08-22T21:20:42.819Z,1.92
2022-08-22T21:23:21.199Z,2.17
2022-08-22T21:25:58.451Z,2.05
2022-08-22T21:28:32.968Z,2.50
2022-08-22T21:31:08.344Z,2.25
2022-08-22T21:33:39.802Z,2.17
2022-08-22T21:36:13.088Z,2.20
2022-08-22T21:38:46.514Z,2.05
2022-08-22T21:41:19.364Z,2.25
2022-08-22T21:43:48.312Z,2.33
2022-08-22T21:46:28.617Z,2.30
2022-08-22T21:49:02.648Z,2.38
2022-08-22T21:51:42.659Z,2.00
2022-08-22T21:54:41.044Z,2.10
2022-08-22T21:57:20.316Z,2.30
2022-08-22T21:59:59.084Z,2.05
2022-08-22T22:02:37.180Z,2.28
2022-08-22T22:05:11.751Z,2.47
2022-08-22T22:07:45.086Z,2.28
2022-08-22T22:10:18.687Z,2.30
2022-08-22T22:12:49.524Z,2.15
2022-08-22T22:15:22.344Z,2.40
2022-08-22T22:17:50.950Z,2.33
2022-08-22T22:20:22.138Z,2.00
2022-08-22T22:22:51.762Z,2.20
2022-08-22T22:25:40.102Z,2.10
2022-08-22T22:28:13.643Z,2.53
2022-08-22T22:30:43.064Z,2.10
2022-08-22T22:33:12.097Z,2.30
2022-08-22T22:35:41.664Z,2.45
2022-08-22T22:38:11.497Z,2.30
2022-08-22T22:40:39.704Z,2.00
2022-08-22T22:43:07.923Z,2.20
2022-08-22T22:45:36.246Z,2.30
2022-08-22T22:48:05.225Z,2.30
2022-08-22T22:50:33.788Z,2.20
2022-08-22T22:53:01.990Z,2.38
2022-08-22T22:55:31.589Z,2.33
2022-08-22T22:58:00.127Z,2.30
2022-08-22T23:00:31.221Z,2.33
2022-08-22T23:03:01.384Z,2.38
2022-08-22T23:05:30.568Z,2.17
2022-08-22T23:08:00.176Z,2.25
2022-08-22T23:10:32.391Z,2.47
2022-08-22T23:13:00.978Z,2.20
2022-08-22T23:15:29.519Z,2.17
2022-08-22T23:17:58.204Z,2.20
2022-08-22T23:20:26.554Z,2.15
2022-08-22T23:22:54.818Z,2.40
2022-08-22T23:25:22.998Z,2.20
2022-08-22T23:27:52.776Z,2.35
2022-08-22T23:30:21.690Z,2.35
2022-08-22T23:32:49.947Z,2.25
2022-08-22T23:35:18.403Z,2.72
2022-08-22T23:37:46.567Z,2.65
2022-08-22T23:40:14.952Z,2.28
2022-08-22T23:42:43.537Z,2.55
2022-08-22T23:45:13.114Z,2.03
2022-08-22T23:47:41.371Z,2.35
2022-08-22T23:50:10.415Z,2.60
2022-08-22T23:52:38.557Z,2.08
2022-08-22T23:55:07.808Z,2.40
2022-08-22T23:57:35.980Z,2.35
